createdAt,value
2018-05-15T00:01:35.343Z,17.11
2018-05-15T00:04:06.366Z,17.16
2018-05-15T00:06:37.360Z,17.19
2018-05-15T00:09:08.347Z,17.08
2018-05-15T00:11:39.345Z,17.14
2018-05-15T00:14:10.358Z,17.06
2018-05-15T00:16:41.335Z,17.02
2018-05-15T00:19:12.396Z,17.09
2018-05-15T00:21:43.390Z,17.14
2018-05-15T00:24:14.403Z,17.13
2018-05-15T00:26:45.436Z,17.14
2018-05-15T00:29:16.397Z,17.10
2018-05-15T00:31:47.427Z,17.13
2018-05-15T00:34:18.457Z,17.03
2018-05-15T00:36:49.664Z,17.07
2018-05-15T00:39:20.875Z,16.99
2018-05-15T00:41:52.037Z,17.00
2018-05-15T00:44:23.091Z,16.96
2018-05-15T00:46:54.506Z,16.97
2018-05-15T00:49:25.736Z,16.89
2018-05-15T00:51:57.084Z,16.92
2018-05-15T00:54:28.348Z,16.86
2018-05-15T00:56:59.496Z,16.79
2018-05-15T00:59:30.689Z,16.75
2018-05-15T01:02:01.837Z,16.73
2018-05-15T01:04:33.057Z,16.73
2018-05-15T01:07:04.100Z,16.64
2018-05-15T01:09:35.183Z,16.78
2018-05-15T01:12:06.266Z,16.73
2018-05-15T01:14:37.373Z,16.73
2018-05-15T01:17:08.346Z,16.80
2018-05-15T01:19:39.332Z,16.89
2018-05-15T01:22:10.326Z,17.01
2018-05-15T01:24:41.314Z,17.05
2018-05-15T01:27:12.373Z,17.18
2018-05-15T01:29:43.327Z,17.28
2018-05-15T01:32:14.331Z,17.30
2018-05-15T01:34:45.311Z,17.31
2018-05-15T01:37:16.330Z,17.22
2018-05-15T01:39:47.285Z,17.20
2018-05-15T01:42:18.311Z,17.05
2018-05-15T01:44:49.329Z,16.91
2018-05-15T01:47:20.400Z,16.86
2018-05-15T01:49:51.368Z,16.81
2018-05-15T01:52:22.407Z,16.79
2018-05-15T01:54:53.413Z,16.73
2018-05-15T01:57:24.410Z,16.73
2018-05-15T01:59:55.520Z,16.79
2018-05-15T02:02:26.507Z,16.82
2018-05-15T02:04:57.494Z,16.86
2018-05-15T02:07:28.501Z,16.78
2018-05-15T02:09:59.509Z,16.85
2018-05-15T02:12:30.550Z,16.89
2018-05-15T02:15:01.522Z,16.90
2018-05-15T02:17:32.567Z,16.94
2018-05-15T02:20:03.542Z,16.93
2018-05-15T02:22:34.582Z,16.87
2018-05-15T02:25:05.589Z,16.71
2018-05-15T02:27:36.686Z,16.60
2018-05-15T02:30:07.666Z,16.44
2018-05-15T02:32:38.654Z,16.36
2018-05-15T02:35:09.704Z,16.33
2018-05-15T02:37:40.682Z,16.20
2018-05-15T02:40:11.688Z,16.21
2018-05-15T02:42:42.710Z,16.19
2018-05-15T02:45:13.763Z,16.19
2018-05-15T02:47:44.808Z,16.22
2018-05-15T02:50:15.806Z,16.26
2018-05-15T02:52:46.811Z,16.30
2018-05-15T02:55:17.824Z,16.34
2018-05-15T02:57:48.815Z,16.44
2018-05-15T03:00:19.802Z,16.57
2018-05-15T03:02:50.825Z,16.61
2018-05-15T03:05:21.847Z,16.64
2018-05-15T03:07:52.838Z,16.58
2018-05-15T03:10:23.851Z,16.61
2018-05-15T03:12:54.863Z,16.65
2018-05-15T03:15:25.887Z,16.70
2018-05-15T03:17:56.868Z,16.70
2018-05-15T03:20:27.869Z,16.71
2018-05-15T03:22:58.838Z,16.68
2018-05-15T03:25:29.878Z,16.67
2018-05-15T03:28:00.944Z,16.67
2018-05-15T03:30:31.918Z,16.69
2018-05-15T03:33:02.878Z,16.70
2018-05-15T03:35:33.914Z,16.66
2018-05-15T03:38:04.931Z,16.67
2018-05-15T03:40:35.952Z,16.65
2018-05-15T03:43:07.066Z,16.57
2018-05-15T03:45:38.082Z,16.62
2018-05-15T03:48:09.022Z,16.72
2018-05-15T03:50:39.995Z,16.79
2018-05-15T03:53:10.995Z,16.74
2018-05-15T03:55:42.004Z,16.83
2018-05-15T03:58:12.961Z,16.86
2018-05-15T04:00:56.321Z,16.92
2018-05-15T04:03:39.704Z,16.95
2018-05-15T04:06:23.026Z,16.88
2018-05-15T04:08:54.020Z,16.89
2018-05-15T04:11:25.038Z,16.99
2018-05-15T04:13:56.070Z,17.12
2018-05-15T04:16:27.137Z,17.19
2018-05-15T04:18:58.071Z,17.21
2018-05-15T04:21:29.096Z,17.28
2018-05-15T04:24:00.085Z,17.29
2018-05-15T04:26:31.115Z,17.31
2018-05-15T04:29:02.113Z,17.39
2018-05-15T04:31:33.180Z,17.48
2018-05-15T04:34:04.172Z,17.50
2018-05-15T04:36:35.160Z,17.50
2018-05-15T04:39:06.181Z,17.53
2018-05-15T04:41:37.225Z,17.50
2018-05-15T04:44:08.209Z,17.48
2018-05-15T04:46:39.194Z,17.34
2018-05-15T04:49:10.206Z,17.23
2018-05-15T04:51:41.180Z,17.26
2018-05-15T04:54:12.193Z,17.22
2018-05-15T04:56:43.170Z,17.14
2018-05-15T04:59:14.177Z,17.05
2018-05-15T05:01:45.194Z,17.07
2018-05-15T05:04:16.209Z,17.12
2018-05-15T05:06:47.215Z,17.12
2018-05-15T05:09:18.219Z,17.19
2018-05-15T05:11:49.283Z,17.19
2018-05-15T05:14:20.206Z,17.21
2018-05-15T05:16:51.220Z,17.26
2018-05-15T05:19:22.212Z,17.27
2018-05-15T05:21:53.256Z,17.20
2018-05-15T05:24:24.238Z,17.18
2018-05-15T05:26:55.280Z,17.12
2018-05-15T05:29:26.286Z,17.23
2018-05-15T05:31:57.308Z,17.21
2018-05-15T05:34:28.311Z,17.21
2018-05-15T05:36:59.288Z,17.22
2018-05-15T05:39:30.351Z,17.30
2018-05-15T05:42:01.352Z,17.41
2018-05-15T05:44:32.376Z,17.47
2018-05-15T05:47:03.430Z,17.52
2018-05-15T05:49:34.381Z,17.53
2018-05-15T05:52:05.479Z,17.65
2018-05-15T05:54:36.390Z,17.89
2018-05-15T05:57:07.444Z,18.35
2018-05-15T05:59:38.424Z,19.39
2018-05-15T06:02:09.460Z,22.77
2018-05-15T06:04:40.412Z,27.95
2018-05-15T06:07:12.492Z,32.23
2018-05-15T06:09:43.532Z,34.67
2018-05-15T06:12:14.576Z,36.30
2018-05-15T06:14:45.586Z,37.33
2018-05-15T06:17:16.595Z,37.93
2018-05-15T06:19:47.598Z,39.03
2018-05-15T06:22:18.640Z,39.41
2018-05-15T06:24:49.610Z,40.08
2018-05-15T06:27:20.646Z,40.42
2018-05-15T06:29:51.638Z,40.46
2018-05-15T06:32:22.710Z,40.78
2018-05-15T06:34:53.716Z,41.28
2018-05-15T06:37:24.782Z,43.03
2018-05-15T06:39:55.806Z,43.54
2018-05-15T06:42:26.791Z,43.46
2018-05-15T06:44:57.767Z,43.51
2018-05-15T06:47:28.798Z,43.83
2018-05-15T06:49:59.778Z,43.82
2018-05-15T06:52:30.805Z,44.79
2018-05-15T06:55:01.799Z,45.93
2018-05-15T06:57:32.809Z,45.79
2018-05-15T07:00:03.801Z,45.35
2018-05-15T07:02:34.821Z,45.86
2018-05-15T07:05:05.800Z,46.34
2018-05-15T07:07:36.823Z,47.49
2018-05-15T07:10:07.826Z,47.93
2018-05-15T07:12:38.853Z,49.44
2018-05-15T07:15:09.905Z,49.63
2018-05-15T07:17:40.934Z,49.15
2018-05-15T07:20:11.954Z,49.29
2018-05-15T07:22:43.071Z,48.52
2018-05-15T07:25:14.012Z,46.16
2018-05-15T07:27:45.040Z,44.30
2018-05-15T07:30:16.033Z,43.86
2018-05-15T07:32:47.109Z,44.64
2018-05-15T07:35:18.125Z,45.05
2018-05-15T07:37:49.126Z,43.76
2018-05-15T07:40:20.198Z,44.03
2018-05-15T07:42:51.146Z,44.93
2018-05-15T07:45:22.180Z,46.42
2018-05-15T07:47:53.153Z,47.60
2018-05-15T07:50:24.189Z,48.89
2018-05-15T07:52:55.206Z,49.88
2018-05-15T07:55:26.199Z,49.90
2018-05-15T07:57:57.168Z,48.79
2018-05-15T08:00:28.220Z,48.49
2018-05-15T08:02:59.208Z,48.79
2018-05-15T08:05:30.215Z,48.56
2018-05-15T08:08:01.194Z,46.87
2018-05-15T08:10:32.308Z,47.63
2018-05-15T08:13:03.239Z,49.72
2018-05-15T08:15:34.230Z,50.93
2018-05-15T08:18:05.197Z,52.13
2018-05-15T08:20:36.211Z,52.56
2018-05-15T08:23:07.228Z,53.17
2018-05-15T08:25:38.239Z,54.05
2018-05-15T08:28:09.263Z,51.52
2018-05-15T08:30:40.301Z,51.28
2018-05-15T08:33:11.250Z,50.70
2018-05-15T08:35:42.280Z,48.66
2018-05-15T08:38:13.261Z,47.63
2018-05-15T08:40:44.314Z,46.89
2018-05-15T08:43:15.321Z,43.42
2018-05-15T08:45:46.334Z,41.94
2018-05-15T08:48:17.312Z,40.94
2018-05-15T08:50:48.325Z,43.59
2018-05-15T08:53:19.325Z,41.62
2018-05-15T08:55:50.397Z,38.25
2018-05-15T08:58:21.362Z,38.08
2018-05-15T09:00:52.377Z,34.76
2018-05-15T09:03:23.363Z,31.74
2018-05-15T09:05:54.388Z,30.49
2018-05-15T09:08:25.396Z,32.87
2018-05-15T09:10:56.472Z,37.60
2018-05-15T09:13:27.484Z,38.93
2018-05-15T09:15:58.488Z,38.92
2018-05-15T09:18:29.469Z,39.29
2018-05-15T09:21:00.489Z,35.58
2018-05-15T09:23:31.568Z,35.46
2018-05-15T09:26:02.575Z,39.56
2018-05-15T09:28:33.632Z,41.16
2018-05-15T09:31:04.705Z,41.30
2018-05-15T09:33:35.709Z,43.10
2018-05-15T09:36:06.792Z,46.29
2018-05-15T09:38:37.837Z,48.37
2018-05-15T09:41:08.887Z,48.09
2018-05-15T09:43:54.808Z,49.52
2018-05-15T09:46:25.809Z,50.67
2018-05-15T09:48:56.824Z,51.25
2018-05-15T09:51:27.801Z,52.50
2018-05-15T09:53:58.808Z,53.11
2018-05-15T09:56:29.811Z,51.55
2018-05-15T09:59:00.880Z,51.74
2018-05-15T10:01:31.895Z,52.74
2018-05-15T10:04:02.961Z,52.99
2018-05-15T10:06:34.159Z,51.12
2018-05-15T10:09:05.199Z,51.53
2018-05-15T10:11:36.197Z,52.25
2018-05-15T10:14:07.352Z,52.59
2018-05-15T10:16:38.332Z,53.73
2018-05-15T10:19:09.373Z,53.12
2018-05-15T10:21:40.395Z,52.49
2018-05-15T10:24:11.462Z,53.01
2018-05-15T10:26:42.499Z,52.98
2018-05-15T10:29:13.556Z,50.73
2018-05-15T10:31:44.590Z,50.85
2018-05-15T10:34:15.574Z,51.29
2018-05-15T10:36:46.567Z,50.85
2018-05-15T10:39:17.621Z,51.55
2018-05-15T10:41:48.640Z,52.11
2018-05-15T10:44:19.652Z,51.05
2018-05-15T10:46:50.686Z,48.98
2018-05-15T10:49:21.658Z,44.97
2018-05-15T10:51:52.704Z,40.88
2018-05-15T10:54:23.695Z,39.52
2018-05-15T10:56:54.901Z,38.69
2018-05-15T10:59:25.780Z,36.93
2018-05-15T11:01:56.796Z,35.51
2018-05-15T11:04:27.806Z,34.34
2018-05-15T11:06:58.790Z,33.22
2018-05-15T11:09:29.832Z,32.56
2018-05-15T11:12:00.962Z,32.47
2018-05-15T11:14:31.952Z,32.48
2018-05-15T11:17:03.039Z,31.86
2018-05-15T11:19:46.464Z,31.01
2018-05-15T11:22:29.780Z,30.76
2018-05-15T11:25:00.776Z,30.35
2018-05-15T11:27:31.780Z,30.38
2018-05-15T11:30:02.832Z,30.56
2018-05-15T11:32:33.850Z,30.79
2018-05-15T11:35:04.859Z,30.52
2018-05-15T11:37:35.854Z,30.86
2018-05-15T11:40:06.897Z,30.53
2018-05-15T11:42:37.922Z,30.12
2018-05-15T11:45:08.918Z,30.31
2018-05-15T11:47:39.946Z,30.19
2018-05-15T11:50:11.452Z,29.36
2018-05-15T11:52:42.289Z,28.78
2018-05-15T11:55:12.890Z,28.20
2018-05-15T11:57:43.851Z,27.91
2018-05-15T12:00:14.895Z,27.36
2018-05-15T12:02:45.959Z,27.34
2018-05-15T12:05:16.856Z,27.14
2018-05-15T12:07:47.861Z,27.10
2018-05-15T12:10:18.895Z,26.99
2018-05-15T12:12:49.908Z,27.38
2018-05-15T12:15:20.942Z,28.00
2018-05-15T12:17:51.914Z,28.34
2018-05-15T12:20:22.977Z,28.53
2018-05-15T12:22:53.910Z,28.84
2018-05-15T12:25:24.922Z,28.43
2018-05-15T12:27:55.929Z,28.40
2018-05-15T12:30:26.949Z,28.78
2018-05-15T12:33:04.966Z,29.25
2018-05-15T12:35:36.075Z,29.62
2018-05-15T12:38:07.104Z,30.24
2018-05-15T12:40:38.099Z,31.08
2018-05-15T12:43:09.089Z,31.57
2018-05-15T12:45:40.095Z,31.47
2018-05-15T12:48:11.093Z,31.39
2018-05-15T12:50:42.141Z,31.32
2018-05-15T12:53:13.108Z,30.64
2018-05-15T12:55:44.135Z,29.90
2018-05-15T12:58:15.107Z,29.62
2018-05-15T13:00:46.155Z,29.73
2018-05-15T13:03:17.151Z,30.18
2018-05-15T13:05:48.155Z,30.91
2018-05-15T13:08:19.175Z,31.70
2018-05-15T13:10:50.177Z,31.93
2018-05-15T13:13:21.157Z,31.27
2018-05-15T13:15:52.121Z,30.18
2018-05-15T13:18:23.212Z,29.36
2018-05-15T13:20:54.176Z,28.89
2018-05-15T13:23:25.181Z,28.44
2018-05-15T13:25:56.160Z,28.36
2018-05-15T13:28:27.150Z,28.59
2018-05-15T13:30:58.172Z,28.58
2018-05-15T13:33:29.210Z,29.26
2018-05-15T13:36:00.180Z,30.14
2018-05-15T13:38:31.365Z,30.22
2018-05-15T13:41:02.414Z,30.10
2018-05-15T13:43:33.415Z,30.41
2018-05-15T13:46:04.437Z,31.44
2018-05-15T13:48:35.417Z,31.50
2018-05-15T13:51:06.413Z,31.15
2018-05-15T13:53:37.416Z,30.97
2018-05-15T13:56:08.469Z,30.57
2018-05-15T13:58:39.507Z,30.44
2018-05-15T14:01:10.523Z,30.33
2018-05-15T14:03:41.521Z,30.07
2018-05-15T14:06:12.520Z,29.56
2018-05-15T14:08:43.526Z,29.64
2018-05-15T14:11:14.504Z,29.58
2018-05-15T14:13:45.615Z,29.13
2018-05-15T14:16:16.566Z,28.47
2018-05-15T14:18:47.572Z,27.35
2018-05-15T14:21:18.547Z,26.09
2018-05-15T14:23:49.589Z,24.42
2018-05-15T14:26:20.589Z,23.04
2018-05-15T14:28:51.591Z,22.47
2018-05-15T14:31:22.614Z,22.39
2018-05-15T14:33:53.607Z,22.32
2018-05-15T14:36:24.588Z,22.32
2018-05-15T14:38:55.594Z,22.32
2018-05-15T14:41:38.726Z,22.16
2018-05-15T14:44:09.774Z,22.26
2018-05-15T14:46:40.738Z,22.28
2018-05-15T14:49:11.759Z,22.27
2018-05-15T14:51:42.766Z,22.30
2018-05-15T14:54:13.806Z,22.39
2018-05-15T14:56:44.821Z,22.60
2018-05-15T14:59:15.832Z,22.89
2018-05-15T15:01:46.848Z,23.19
2018-05-15T15:04:17.874Z,23.43
2018-05-15T15:06:48.883Z,23.59
2018-05-15T15:09:19.872Z,23.65
2018-05-15T15:11:50.898Z,23.66
2018-05-15T15:14:21.928Z,23.40
2018-05-15T15:16:52.902Z,23.14
2018-05-15T15:19:24.035Z,22.77
2018-05-15T15:21:55.037Z,22.43
2018-05-15T15:24:26.287Z,22.21
2018-05-15T15:26:57.027Z,21.83
2018-05-15T15:29:28.054Z,21.56
2018-05-15T15:31:59.062Z,21.37
2018-05-15T15:34:30.066Z,21.18
2018-05-15T15:37:01.042Z,20.94
2018-05-15T15:39:32.054Z,20.84
2018-05-15T15:42:03.023Z,20.76
2018-05-15T15:44:34.084Z,20.71
2018-05-15T15:47:05.091Z,20.67
2018-05-15T15:49:36.126Z,20.88
2018-05-15T15:52:07.107Z,21.11
2018-05-15T15:54:38.141Z,21.28
2018-05-15T15:57:09.139Z,21.58
2018-05-15T15:59:40.233Z,21.81
2018-05-15T16:02:12.411Z,21.91
2018-05-15T16:04:43.431Z,22.01
2018-05-15T16:07:14.495Z,22.00
2018-05-15T16:09:46.410Z,22.01
2018-05-15T16:12:17.403Z,21.99
2018-05-15T16:14:48.396Z,22.14
2018-05-15T16:17:19.402Z,22.31
2018-05-15T16:19:50.409Z,22.36
2018-05-15T16:22:22.091Z,22.51
2018-05-15T16:24:53.144Z,22.80
2018-05-15T16:27:24.158Z,22.99
2018-05-15T16:29:55.193Z,23.22
2018-05-15T16:32:26.279Z,23.50
2018-05-15T16:34:57.308Z,23.79
2018-05-15T16:37:28.301Z,24.17
2018-05-15T16:39:59.320Z,24.47
2018-05-15T16:42:30.346Z,24.60
2018-05-15T16:45:01.350Z,24.78
2018-05-15T16:47:32.371Z,25.02
2018-05-15T16:50:03.459Z,24.78
2018-05-15T16:52:34.471Z,24.50
2018-05-15T16:55:05.480Z,24.38
2018-05-15T16:57:36.494Z,23.95
2018-05-15T17:00:07.516Z,23.84
2018-05-15T17:02:38.527Z,23.59
2018-05-15T17:05:09.639Z,23.50
2018-05-15T17:07:40.679Z,23.36
2018-05-15T17:10:11.750Z,23.32
2018-05-15T17:12:42.786Z,23.38
2018-05-15T17:15:13.833Z,23.26
2018-05-15T17:17:44.845Z,23.16
2018-05-15T17:20:15.862Z,22.80
2018-05-15T17:22:46.832Z,22.42
2018-05-15T17:25:17.868Z,22.11
2018-05-15T17:27:48.891Z,21.51
2018-05-15T17:30:19.902Z,20.98
2018-05-15T17:32:50.873Z,20.64
2018-05-15T17:35:21.878Z,20.44
2018-05-15T17:37:52.906Z,20.16
2018-05-15T17:40:23.926Z,19.84
2018-05-15T17:42:54.944Z,19.37
2018-05-15T17:45:25.999Z,19.15
2018-05-15T17:47:56.974Z,19.15
2018-05-15T17:50:27.950Z,19.24
2018-05-15T17:52:59.013Z,19.35
2018-05-15T17:55:29.987Z,19.45
2018-05-15T17:58:00.955Z,19.42
2018-05-15T18:00:31.938Z,19.47
2018-05-15T18:03:02.907Z,19.57
2018-05-15T18:05:33.908Z,19.58
2018-05-15T18:08:04.886Z,19.55
2018-05-15T18:10:35.854Z,19.40
2018-05-15T18:13:06.865Z,19.29
2018-05-15T18:15:37.917Z,19.38
2018-05-15T18:18:08.912Z,19.29
2018-05-15T18:20:39.932Z,19.33
2018-05-15T18:23:10.964Z,19.39
2018-05-15T18:25:41.918Z,19.15
2018-05-15T18:28:12.934Z,19.04
2018-05-15T18:30:43.972Z,19.02
2018-05-15T18:33:15.042Z,18.96
2018-05-15T18:35:45.998Z,18.83
2018-05-15T18:38:17.022Z,18.63
2018-05-15T18:40:47.999Z,18.50
2018-05-15T18:43:19.018Z,18.39
2018-05-15T18:45:49.993Z,18.26
2018-05-15T18:48:21.044Z,18.15
2018-05-15T18:50:52.129Z,18.06
2018-05-15T18:53:23.076Z,17.92
2018-05-15T18:55:54.083Z,17.78
2018-05-15T18:58:25.292Z,17.64
2018-05-15T19:00:56.324Z,17.54
2018-05-15T19:03:27.317Z,17.46
2018-05-15T19:05:58.321Z,17.37
2018-05-15T19:08:29.334Z,17.20
2018-05-15T19:11:00.324Z,17.13
2018-05-15T19:13:31.331Z,17.07
2018-05-15T19:16:02.346Z,17.08
2018-05-15T19:18:33.355Z,17.14
2018-05-15T19:21:04.360Z,17.23
2018-05-15T19:23:35.389Z,17.34
2018-05-15T19:26:13.218Z,17.47
2018-05-15T19:28:44.228Z,17.52
2018-05-15T19:31:15.251Z,17.52
2018-05-15T19:33:51.155Z,17.55
2018-05-15T19:36:28.355Z,17.49
2018-05-15T19:39:05.336Z,17.34
2018-05-15T19:41:36.401Z,17.23
2018-05-15T19:44:07.387Z,17.21
2018-05-15T19:46:38.391Z,17.18
2018-05-15T19:49:09.381Z,17.18
2018-05-15T19:51:40.376Z,17.19
2018-05-15T19:54:11.370Z,17.19
2018-05-15T19:59:15.925Z,17.05
2018-05-15T20:01:46.980Z,16.90
2018-05-15T20:04:17.946Z,16.73
2018-05-15T20:06:48.963Z,16.57
2018-05-15T20:09:20.012Z,16.46
2018-05-15T20:11:51.013Z,16.34
2018-05-15T20:14:22.052Z,16.27
2018-05-15T20:16:53.059Z,16.24
2018-05-15T20:19:24.108Z,16.20
2018-05-15T20:21:55.099Z,16.15
2018-05-15T20:24:26.118Z,16.12
2018-05-15T20:26:57.134Z,16.05
2018-05-15T20:29:28.202Z,16.00
2018-05-15T20:31:59.172Z,15.95
2018-05-15T20:34:30.273Z,15.92
2018-05-15T20:37:01.245Z,15.88
2018-05-15T20:39:32.274Z,15.87
2018-05-15T20:42:03.377Z,15.88
2018-05-15T20:44:34.292Z,15.85
2018-05-15T20:47:05.285Z,15.84
2018-05-15T20:49:36.328Z,15.80
2018-05-15T20:52:07.394Z,15.77
2018-05-15T20:54:38.351Z,15.75
2018-05-15T20:57:09.342Z,15.73
2018-05-15T20:59:40.311Z,15.71
2018-05-15T21:02:11.312Z,15.69
2018-05-15T21:04:42.324Z,15.70
2018-05-15T21:07:13.329Z,15.71
2018-05-15T21:09:44.286Z,15.73
2018-05-15T21:12:15.300Z,15.72
2018-05-15T21:14:46.292Z,15.72
2018-05-15T21:17:17.266Z,15.74
2018-05-15T21:19:48.260Z,15.80
2018-05-15T21:22:19.284Z,15.86
2018-05-15T21:24:50.226Z,15.90
2018-05-15T21:27:21.246Z,15.95
2018-05-15T21:29:52.227Z,16.00
2018-05-15T21:32:23.234Z,16.01
2018-05-15T21:34:54.222Z,16.02
2018-05-15T21:37:25.231Z,16.01
2018-05-15T21:39:56.216Z,16.04
2018-05-15T21:42:27.210Z,16.08
2018-05-15T21:44:58.195Z,16.16
2018-05-15T21:47:29.224Z,16.16
2018-05-15T21:50:00.279Z,16.17
2018-05-15T21:52:31.240Z,16.21
2018-05-15T21:55:02.285Z,16.19
2018-05-15T21:57:33.268Z,16.15
2018-05-15T22:00:04.270Z,16.15
2018-05-15T22:02:35.233Z,16.14
2018-05-15T22:05:06.258Z,16.11
2018-05-15T22:07:37.266Z,16.07
2018-05-15T22:10:08.282Z,16.00
2018-05-15T22:12:51.577Z,15.96
2018-05-15T22:15:34.842Z,15.90
2018-05-15T22:18:18.229Z,15.84
2018-05-15T22:21:01.676Z,15.82
2018-05-15T22:23:32.447Z,15.85
2018-05-15T22:26:03.465Z,15.94
2018-05-15T22:28:34.455Z,16.01
2018-05-15T22:31:05.693Z,16.07
2018-05-15T22:33:36.661Z,16.08
2018-05-15T22:36:07.671Z,16.07
2018-05-15T22:38:38.633Z,16.09
2018-05-15T22:41:09.638Z,16.12
2018-05-15T22:43:40.651Z,16.16
2018-05-15T22:46:11.689Z,16.21
2018-05-15T22:48:42.698Z,16.28
2018-05-15T22:51:13.716Z,16.34
2018-05-15T22:53:44.714Z,16.34
2018-05-15T22:56:15.693Z,16.35
2018-05-15T22:58:46.694Z,16.33
2018-05-15T23:01:17.714Z,16.31
2018-05-15T23:03:48.741Z,16.31
2018-05-15T23:06:19.787Z,16.28
2018-05-15T23:08:50.739Z,16.21
2018-05-15T23:11:21.749Z,16.17
2018-05-15T23:13:52.763Z,16.13
2018-05-15T23:16:23.721Z,16.11
2018-05-15T23:18:54.732Z,16.10
2018-05-15T23:21:25.751Z,16.11
2018-05-15T23:23:56.813Z,16.12
2018-05-15T23:26:27.799Z,16.09
2018-05-15T23:28:58.825Z,16.13
2018-05-15T23:31:29.810Z,16.17
2018-05-15T23:34:00.816Z,16.14
2018-05-15T23:36:31.774Z,16.16
2018-05-15T23:39:02.817Z,16.15
2018-05-15T23:41:33.780Z,16.13
2018-05-15T23:44:04.771Z,16.12
2018-05-15T23:46:35.730Z,16.08
2018-05-15T23:49:06.751Z,16.12
2018-05-15T23:51:37.704Z,16.12
2018-05-15T23:54:08.733Z,16.10
2018-05-15T23:56:39.718Z,16.09
2018-05-15T23:59:10.738Z,16.06
